createdAt,value
2018-08-04T00:00:19.094Z,22.54
2018-08-04T00:01:19.157Z,22.46
2018-08-04T00:02:19.219Z,22.42
2018-08-04T00:03:19.283Z,22.39
2018-08-04T00:04:19.345Z,22.42
2018-08-04T00:05:19.408Z,22.46
2018-08-04T00:06:19.471Z,22.42
2018-08-04T00:07:19.535Z,22.42
2018-08-04T00:08:19.597Z,22.46
2018-08-04T00:09:19.661Z,22.45
2018-08-04T00:10:19.723Z,22.38
2018-08-04T00:11:19.786Z,22.35
2018-08-04T00:12:19.850Z,22.23
2018-08-04T00:13:19.912Z,22.29
2018-08-04T00:14:19.977Z,22.21
2018-08-04T00:15:20.039Z,22.27
2018-08-04T00:16:20.102Z,22.14
2018-08-04T00:17:20.162Z,22.17
2018-08-04T00:18:20.227Z,22.15
2018-08-04T00:19:20.290Z,22.19
2018-08-04T00:20:20.354Z,22.12
2018-08-04T00:21:20.415Z,22.11
2018-08-04T00:22:20.481Z,22.17
2018-08-04T00:23:20.541Z,22.04
2018-08-04T00:24:20.605Z,22.08
2018-08-04T00:25:20.666Z,22.08
2018-08-04T00:26:20.730Z,22.04
2018-08-04T00:27:20.844Z,22.01
2018-08-04T00:28:20.856Z,22.01
2018-08-04T00:29:20.918Z,22.04
2018-08-04T00:30:20.981Z,22.01
2018-08-04T00:31:21.045Z,22.08
2018-08-04T00:32:21.107Z,22.02
2018-08-04T00:33:21.169Z,22.01
2018-08-04T00:34:21.232Z,21.99
2018-08-04T00:35:21.296Z,21.90
2018-08-04T00:36:21.358Z,22.01
2018-08-04T00:37:21.420Z,21.93
2018-08-04T00:38:21.483Z,21.96
2018-08-04T00:39:21.547Z,21.85
2018-08-04T00:40:21.613Z,21.81
2018-08-04T00:41:21.672Z,21.82
2018-08-04T00:42:21.735Z,21.85
2018-08-04T00:43:21.797Z,21.83
2018-08-04T00:44:21.861Z,21.86
2018-08-04T00:45:21.922Z,21.83
2018-08-04T00:46:21.984Z,21.77
2018-08-04T00:47:22.049Z,21.71
2018-08-04T00:48:22.112Z,21.81
2018-08-04T00:49:22.173Z,21.79
2018-08-04T00:50:22.253Z,21.66
2018-08-04T00:51:22.298Z,21.68
2018-08-04T00:52:22.360Z,21.67
2018-08-04T00:53:22.422Z,21.61
2018-08-04T00:54:22.485Z,21.46
2018-08-04T00:55:22.565Z,21.61
2018-08-04T00:56:22.611Z,21.46
2018-08-04T00:57:22.676Z,21.48
2018-08-04T00:58:22.735Z,21.58
2018-08-04T00:59:22.799Z,21.56
2018-08-04T01:00:22.862Z,21.48
2018-08-04T01:01:22.922Z,21.42
2018-08-04T01:02:22.987Z,21.43
2018-08-04T01:03:23.052Z,21.42
2018-08-04T01:04:23.110Z,21.46
2018-08-04T01:05:23.172Z,21.31
2018-08-04T01:06:23.235Z,21.42
2018-08-04T01:07:23.297Z,21.40
2018-08-04T01:08:23.361Z,21.42
2018-08-04T01:09:23.422Z,21.40
2018-08-04T01:10:23.484Z,21.40
2018-08-04T01:11:23.547Z,21.43
2018-08-04T01:12:23.610Z,21.42
2018-08-04T01:13:23.672Z,21.40
2018-08-04T01:14:23.738Z,21.45
2018-08-04T01:15:23.797Z,21.37
2018-08-04T01:16:23.861Z,21.43
2018-08-04T01:17:23.921Z,21.53
2018-08-04T01:18:23.984Z,21.45
2018-08-04T01:19:24.046Z,21.64
2018-08-04T01:20:24.109Z,21.81
2018-08-04T01:21:24.174Z,21.68
2018-08-04T01:22:24.234Z,21.66
2018-08-04T01:23:24.296Z,21.52
2018-08-04T01:24:24.360Z,21.61
2018-08-04T01:25:24.419Z,21.61
2018-08-04T01:26:24.483Z,21.45
2018-08-04T01:27:24.545Z,21.40
2018-08-04T01:28:24.607Z,21.42
2018-08-04T01:29:24.672Z,21.37
2018-08-04T01:30:24.731Z,21.42
2018-08-04T01:31:24.802Z,21.27
2018-08-04T01:32:24.858Z,21.24
2018-08-04T01:33:24.918Z,21.24
2018-08-04T01:34:24.981Z,21.19
2018-08-04T01:35:25.047Z,21.16
2018-08-04T01:36:25.107Z,21.11
2018-08-04T01:37:25.167Z,21.09
2018-08-04T01:38:25.231Z,21.08
2018-08-04T01:39:25.292Z,21.11
2018-08-04T01:40:25.357Z,20.93
2018-08-04T01:41:25.416Z,20.97
2018-08-04T01:42:25.480Z,20.98
2018-08-04T01:43:25.540Z,21.06
2018-08-04T01:44:25.604Z,21.09
2018-08-04T01:45:25.665Z,21.30
2018-08-04T01:46:25.727Z,21.48
2018-08-04T01:47:25.790Z,21.53
2018-08-04T01:48:25.853Z,21.61
2018-08-04T01:49:25.915Z,21.51
2018-08-04T01:50:25.976Z,21.36
2018-08-04T01:51:26.039Z,21.22
2018-08-04T01:52:26.100Z,21.15
2018-08-04T01:53:26.163Z,21.00
2018-08-04T01:54:26.227Z,20.97
2018-08-04T01:55:26.287Z,21.05
2018-08-04T01:56:26.349Z,21.03
2018-08-04T01:57:26.411Z,21.06
2018-08-04T01:58:26.473Z,21.00
2018-08-04T01:59:26.536Z,21.03
2018-08-04T02:00:26.597Z,21.19
2018-08-04T02:01:26.659Z,21.31
2018-08-04T02:02:26.722Z,21.26
2018-08-04T02:03:26.784Z,21.24
2018-08-04T02:04:26.846Z,21.11
2018-08-04T02:05:26.907Z,21.09
2018-08-04T02:06:26.971Z,21.01
2018-08-04T02:07:27.033Z,20.96
2018-08-04T02:08:27.100Z,21.01
2018-08-04T02:09:27.156Z,20.91
2018-08-04T02:10:27.218Z,20.93
2018-08-04T02:11:27.280Z,20.88
2018-08-04T02:12:27.342Z,20.91
2018-08-04T02:13:27.402Z,20.85
2018-08-04T02:14:27.465Z,20.96
2018-08-04T02:15:27.778Z,20.97
2018-08-04T02:16:27.591Z,20.94
2018-08-04T02:17:27.653Z,20.88
2018-08-04T02:18:27.715Z,20.91
2018-08-04T02:19:27.777Z,20.93
2018-08-04T02:20:27.838Z,20.88
2018-08-04T02:21:27.902Z,20.83
2018-08-04T02:22:27.962Z,20.72
2018-08-04T02:23:28.024Z,20.71
2018-08-04T02:24:28.095Z,20.73
2018-08-04T02:25:28.147Z,20.73
2018-08-04T02:26:28.209Z,20.58
2018-08-04T02:27:28.272Z,20.51
2018-08-04T02:28:28.335Z,20.50
2018-08-04T02:29:28.395Z,20.66
2018-08-04T02:30:28.458Z,20.72
2018-08-04T02:31:28.521Z,20.83
2018-08-04T02:32:28.581Z,20.83
2018-08-04T02:33:28.645Z,20.72
2018-08-04T02:34:28.706Z,20.75
2018-08-04T02:35:28.768Z,20.75
2018-08-04T02:36:28.830Z,20.71
2018-08-04T02:37:28.890Z,20.75
2018-08-04T02:38:28.952Z,20.81
2018-08-04T02:39:29.016Z,20.79
2018-08-04T02:40:29.077Z,20.69
2018-08-04T02:41:29.138Z,20.69
2018-08-04T02:42:29.202Z,20.66
2018-08-04T02:43:29.272Z,20.60
2018-08-04T02:44:29.323Z,20.60
2018-08-04T02:45:29.387Z,20.64
2018-08-04T02:46:29.449Z,20.68
2018-08-04T02:47:29.510Z,20.76
2018-08-04T02:48:29.571Z,20.73
2018-08-04T02:49:29.633Z,20.79
2018-08-04T02:50:29.945Z,20.68
2018-08-04T02:51:29.759Z,20.66
2018-08-04T02:52:29.824Z,20.61
2018-08-04T02:53:29.880Z,20.58
2018-08-04T02:54:29.942Z,20.63
2018-08-04T02:55:30.154Z,20.64
2018-08-04T02:56:30.066Z,20.64
2018-08-04T02:57:30.127Z,20.58
2018-08-04T02:58:30.193Z,20.54
2018-08-04T02:59:30.252Z,20.56
2018-08-04T03:00:30.313Z,20.53
2018-08-04T03:01:30.375Z,20.53
2018-08-04T03:02:30.435Z,20.56
2018-08-04T03:03:30.499Z,20.58
2018-08-04T03:04:30.561Z,20.63
2018-08-04T03:05:30.626Z,20.64
2018-08-04T03:06:30.684Z,20.71
2018-08-04T03:07:30.744Z,20.78
2018-08-04T03:08:30.852Z,20.83
2018-08-04T03:09:30.869Z,20.72
2018-08-04T03:10:30.932Z,20.57
2018-08-04T03:11:30.994Z,20.63
2018-08-04T03:12:31.055Z,20.66
2018-08-04T03:13:31.116Z,20.69
2018-08-04T03:14:31.179Z,20.71
2018-08-04T03:15:31.240Z,20.82
2018-08-04T03:16:31.303Z,20.81
2018-08-04T03:17:31.364Z,20.63
2018-08-04T03:18:31.426Z,20.61
2018-08-04T03:19:31.488Z,20.51
2018-08-04T03:20:31.550Z,20.50
2018-08-04T03:21:31.612Z,20.57
2018-08-04T03:22:31.677Z,20.50
2018-08-04T03:23:31.735Z,20.56
2018-08-04T03:24:31.797Z,20.57
2018-08-04T03:25:31.860Z,20.61
2018-08-04T03:26:31.921Z,20.58
2018-08-04T03:27:31.981Z,20.56
2018-08-04T03:28:32.047Z,20.61
2018-08-04T03:29:32.107Z,20.56
2018-08-04T03:30:32.166Z,20.51
2018-08-04T03:31:32.380Z,20.48
2018-08-04T03:32:32.291Z,20.41
2018-08-04T03:33:32.352Z,20.51
2018-08-04T03:34:32.414Z,20.50
2018-08-04T03:35:32.476Z,20.44
2018-08-04T03:36:32.537Z,20.54
2018-08-04T03:37:32.598Z,20.68
2018-08-04T03:38:32.662Z,20.63
2018-08-04T03:39:32.722Z,20.64
2018-08-04T03:40:32.784Z,20.64
2018-08-04T03:41:32.845Z,20.63
2018-08-04T03:42:32.907Z,20.60
2018-08-04T03:43:32.971Z,20.58
2018-08-04T03:44:33.033Z,20.58
2018-08-04T03:45:33.093Z,20.69
2018-08-04T03:46:33.155Z,20.64
2018-08-04T03:47:33.217Z,20.73
2018-08-04T03:48:33.279Z,20.60
2018-08-04T03:49:33.340Z,20.72
2018-08-04T03:50:33.405Z,20.69
2018-08-04T03:51:33.465Z,20.68
2018-08-04T03:52:33.528Z,20.78
2018-08-04T03:53:33.588Z,20.93
2018-08-04T03:54:33.653Z,20.91
2018-08-04T03:55:33.713Z,20.94
2018-08-04T03:56:33.774Z,21.03
2018-08-04T03:57:33.835Z,21.00
2018-08-04T03:58:33.897Z,21.00
2018-08-04T03:59:33.975Z,20.98
2018-08-04T04:00:34.022Z,21.05
2018-08-04T04:01:34.084Z,21.06
2018-08-04T04:02:34.147Z,21.00
2018-08-04T04:03:34.208Z,20.98
2018-08-04T04:04:34.275Z,20.98
2018-08-04T04:05:34.332Z,21.05
2018-08-04T04:06:34.414Z,20.98
2018-08-04T04:07:34.456Z,20.88
2018-08-04T04:08:34.518Z,20.93
2018-08-04T04:09:34.583Z,20.97
2018-08-04T04:10:34.641Z,20.96
2018-08-04T04:11:34.703Z,20.96
2018-08-04T04:12:34.765Z,21.01
2018-08-04T04:13:34.826Z,20.96
2018-08-04T04:14:34.890Z,20.98
2018-08-04T04:15:34.950Z,21.03
2018-08-04T04:16:35.013Z,20.91
2018-08-04T04:17:35.074Z,20.94
2018-08-04T04:18:35.145Z,20.87
2018-08-04T04:19:35.198Z,20.90
2018-08-04T04:20:35.260Z,20.90
2018-08-04T04:21:35.324Z,20.93
2018-08-04T04:22:35.383Z,20.94
2018-08-04T04:23:35.446Z,20.91
2018-08-04T04:24:35.508Z,20.94
2018-08-04T04:25:35.570Z,20.90
2018-08-04T04:26:35.632Z,20.88
2018-08-04T04:27:35.695Z,20.88
2018-08-04T04:28:35.756Z,20.87
2018-08-04T04:29:35.817Z,20.88
2018-08-04T04:30:35.881Z,20.94
2018-08-04T04:31:36.193Z,20.83
2018-08-04T04:32:36.006Z,20.85
2018-08-04T04:33:36.066Z,20.85
2018-08-04T04:34:36.128Z,20.75
2018-08-04T04:35:36.189Z,20.82
2018-08-04T04:36:36.251Z,20.82
2018-08-04T04:37:36.313Z,20.82
2018-08-04T04:38:36.375Z,20.82
2018-08-04T04:39:36.437Z,20.79
2018-08-04T04:40:36.499Z,20.68
2018-08-04T04:41:36.563Z,20.56
2018-08-04T04:42:36.622Z,20.57
2018-08-04T04:43:36.685Z,20.60
2018-08-04T04:44:36.747Z,20.53
2018-08-04T04:45:36.810Z,20.50
2018-08-04T04:46:36.871Z,20.56
2018-08-04T04:47:36.931Z,20.53
2018-08-04T04:48:37.092Z,20.51
2018-08-04T04:49:37.056Z,20.42
2018-08-04T04:50:37.117Z,20.46
2018-08-04T04:51:37.180Z,20.53
2018-08-04T04:52:37.244Z,20.56
2018-08-04T04:53:37.304Z,20.42
2018-08-04T04:54:37.365Z,20.50
2018-08-04T04:55:37.428Z,20.57
2018-08-04T04:56:37.489Z,20.48
2018-08-04T04:57:37.551Z,20.58
2018-08-04T04:58:37.613Z,20.57
2018-08-04T04:59:37.676Z,20.58
2018-08-04T05:00:37.738Z,20.58
2018-08-04T05:01:37.799Z,20.51
2018-08-04T05:02:37.862Z,20.56
2018-08-04T05:03:37.926Z,20.56
2018-08-04T05:04:39.165Z,20.54
2018-08-04T05:05:38.048Z,20.54
2018-08-04T05:06:38.108Z,20.58
2018-08-04T05:07:38.171Z,20.63
2018-08-04T05:08:38.273Z,20.71
2018-08-04T05:09:38.296Z,20.75
2018-08-04T05:10:38.356Z,20.85
2018-08-04T05:11:38.669Z,20.79
2018-08-04T05:12:38.481Z,20.83
2018-08-04T05:13:38.542Z,20.90
2018-08-04T05:14:38.605Z,20.88
2018-08-04T05:15:38.666Z,20.97
2018-08-04T05:16:38.730Z,20.91
2018-08-04T05:17:38.790Z,20.94
2018-08-04T05:18:38.852Z,20.93
2018-08-04T05:19:38.914Z,20.96
2018-08-04T05:20:38.976Z,21.03
2018-08-04T05:21:39.057Z,21.12
2018-08-04T05:22:39.100Z,21.12
2018-08-04T05:23:39.163Z,21.06
2018-08-04T05:24:39.225Z,21.05
2018-08-04T05:25:39.288Z,21.05
2018-08-04T05:26:39.352Z,21.06
2018-08-04T05:27:39.411Z,21.11
2018-08-04T05:28:39.474Z,21.03
2018-08-04T05:29:39.538Z,21.01
2018-08-04T05:30:39.599Z,21.11
2018-08-04T05:31:39.661Z,21.08
2018-08-04T05:32:39.723Z,21.26
2018-08-04T05:33:39.784Z,21.24
2018-08-04T05:34:39.848Z,21.18
2018-08-04T05:35:39.912Z,21.19
2018-08-04T05:36:39.972Z,21.21
2018-08-04T05:37:40.035Z,21.24
2018-08-04T05:38:40.096Z,21.24
2018-08-04T05:39:40.158Z,21.33
2018-08-04T05:40:40.221Z,21.22
2018-08-04T05:41:40.282Z,21.27
2018-08-04T05:42:40.349Z,21.33
2018-08-04T05:43:40.464Z,21.34
2018-08-04T05:44:40.470Z,21.42
2018-08-04T05:45:40.533Z,21.45
2018-08-04T05:46:40.595Z,21.63
2018-08-04T05:47:40.658Z,21.53
2018-08-04T05:48:40.719Z,21.55
2018-08-04T05:49:40.782Z,21.70
2018-08-04T05:50:40.844Z,21.64
2018-08-04T05:51:40.906Z,21.53
2018-08-04T05:52:41.221Z,21.63
2018-08-04T05:53:41.031Z,21.67
2018-08-04T05:54:41.095Z,21.67
2018-08-04T05:55:41.156Z,21.70
2018-08-04T05:56:41.219Z,21.82
2018-08-04T05:57:41.280Z,21.85
2018-08-04T05:58:41.348Z,21.73
2018-08-04T05:59:41.408Z,21.74
2018-08-04T06:00:41.476Z,21.77
2018-08-04T06:01:41.565Z,21.89
2018-08-04T06:02:41.595Z,21.94
2018-08-04T06:03:41.659Z,22.09
2018-08-04T06:04:41.724Z,22.20
2018-08-04T06:05:41.784Z,22.26
2018-08-04T06:06:41.848Z,22.15
2018-08-04T06:07:41.910Z,22.33
2018-08-04T06:08:41.973Z,22.35
2018-08-04T06:09:42.035Z,22.38
2018-08-04T06:10:42.098Z,22.44
2018-08-04T06:11:42.162Z,22.46
2018-08-04T06:12:42.225Z,22.56
2018-08-04T06:13:42.288Z,22.61
2018-08-04T06:14:42.350Z,22.56
2018-08-04T06:15:42.414Z,22.66
2018-08-04T06:16:42.477Z,22.78
2018-08-04T06:17:42.543Z,22.75
2018-08-04T06:18:42.604Z,22.81
2018-08-04T06:19:42.667Z,22.96
2018-08-04T06:20:42.739Z,23.03
2018-08-04T06:21:42.796Z,23.14
2018-08-04T06:22:42.857Z,23.16
2018-08-04T06:23:42.922Z,23.06
2018-08-04T06:24:42.991Z,23.16
2018-08-04T06:25:43.055Z,23.19
2018-08-04T06:26:43.112Z,23.29
2018-08-04T06:27:43.326Z,23.22
2018-08-04T06:28:43.239Z,23.34
2018-08-04T06:29:43.302Z,23.35
2018-08-04T06:30:43.367Z,23.41
2018-08-04T06:31:43.430Z,23.45
2018-08-04T06:32:43.746Z,23.29
2018-08-04T06:33:43.572Z,23.23
2018-08-04T06:34:43.622Z,23.23
2018-08-04T06:35:43.687Z,23.32
2018-08-04T06:36:43.750Z,23.38
2018-08-04T06:37:43.812Z,23.38
2018-08-04T06:38:43.878Z,23.39
2018-08-04T06:39:43.942Z,23.42
2018-08-04T06:40:44.005Z,23.45
2018-08-04T06:41:44.146Z,23.56
2018-08-04T06:42:44.132Z,23.62
2018-08-04T06:43:44.216Z,23.68
2018-08-04T06:44:44.261Z,23.79
2018-08-04T06:45:44.329Z,23.82
2018-08-04T06:46:44.388Z,23.87
2018-08-04T06:47:44.703Z,23.87
2018-08-04T06:48:44.518Z,23.94
2018-08-04T06:49:44.580Z,24.02
2018-08-04T06:50:44.645Z,24.06
2018-08-04T06:51:44.710Z,24.12
2018-08-04T06:52:45.077Z,24.16
2018-08-04T06:53:44.837Z,24.16
2018-08-04T06:54:44.901Z,24.23
2018-08-04T06:55:44.965Z,24.26
2018-08-04T06:56:45.031Z,24.33
2018-08-04T06:57:45.097Z,24.41
2018-08-04T06:58:45.159Z,24.53
2018-08-04T06:59:45.223Z,24.46
2018-08-04T07:00:45.287Z,24.51
2018-08-04T07:01:45.353Z,24.48
2018-08-04T07:02:45.416Z,24.46
2018-08-04T07:03:45.481Z,24.46
2018-08-04T07:04:45.546Z,24.59
2018-08-04T07:05:45.609Z,24.64
2018-08-04T07:06:45.677Z,24.68
2018-08-04T07:07:45.739Z,24.74
2018-08-04T07:08:45.804Z,24.82
2018-08-04T07:09:46.436Z,24.70
2018-08-04T07:10:45.934Z,24.83
2018-08-04T07:11:45.999Z,24.92
2018-08-04T07:12:46.063Z,24.90
2018-08-04T07:13:46.138Z,24.92
2018-08-04T07:14:46.192Z,24.92
2018-08-04T07:16:28.700Z,25.08
2018-08-04T07:17:28.765Z,25.20
2018-08-04T07:18:28.830Z,25.29
2018-08-04T07:19:28.896Z,25.31
2018-08-04T07:20:28.961Z,25.45
2018-08-04T07:21:29.451Z,25.53
2018-08-04T07:22:29.089Z,25.76
2018-08-04T07:23:29.156Z,25.71
2018-08-04T07:24:29.220Z,25.82
2018-08-04T07:25:29.284Z,25.98
2018-08-04T07:26:29.353Z,26.04
2018-08-04T07:27:29.417Z,26.12
2018-08-04T07:28:29.481Z,26.16
2018-08-04T07:29:29.547Z,26.24
2018-08-04T07:30:29.614Z,26.42
2018-08-04T07:31:29.679Z,26.41
2018-08-04T07:32:29.744Z,26.44
2018-08-04T07:33:29.809Z,26.54
2018-08-04T07:34:29.875Z,26.81
2018-08-04T07:35:29.944Z,26.97
2018-08-04T07:36:30.007Z,27.01
2018-08-04T07:37:30.073Z,27.18
2018-08-04T07:38:30.141Z,27.33
2018-08-04T07:39:30.728Z,27.38
2018-08-04T07:40:30.897Z,27.38
2018-08-04T07:41:31.134Z,27.49
2018-08-04T07:42:31.219Z,27.76
2018-08-04T07:43:30.473Z,27.77
2018-08-04T07:44:30.541Z,27.96
2018-08-04T07:45:30.607Z,28.08
2018-08-04T07:46:30.675Z,28.11
2018-08-04T07:47:30.759Z,28.18
2018-08-04T07:48:30.809Z,28.15
2018-08-04T07:49:30.875Z,28.13
2018-08-04T07:50:30.943Z,28.09
2018-08-04T07:51:31.011Z,28.20
2018-08-04T07:52:31.077Z,28.14
2018-08-04T07:53:31.145Z,28.20
2018-08-04T07:54:31.214Z,28.23
2018-08-04T07:55:31.280Z,28.21
2018-08-04T07:56:31.346Z,28.17
2018-08-04T07:57:31.415Z,27.87
2018-08-04T07:58:31.482Z,28.05
2018-08-04T07:59:31.609Z,28.13
2018-08-04T08:00:31.621Z,28.05
2018-08-04T08:01:31.684Z,28.18
2018-08-04T08:02:31.752Z,28.18
2018-08-04T08:03:31.821Z,28.30
2018-08-04T08:04:31.891Z,28.32
2018-08-04T08:05:31.957Z,28.24
2018-08-04T08:06:32.024Z,28.24
2018-08-04T08:07:32.092Z,28.30
2018-08-04T08:08:32.160Z,28.17
2018-08-04T08:09:32.839Z,28.01
2018-08-04T08:10:32.353Z,28.09
2018-08-04T08:11:32.364Z,27.99
2018-08-04T08:12:32.429Z,28.08
2018-08-04T08:13:32.497Z,28.09
2018-08-04T08:14:32.566Z,28.13
2018-08-04T08:15:32.634Z,28.09
2018-08-04T08:16:32.700Z,28.18
2018-08-04T08:17:32.767Z,28.20
2018-08-04T08:18:32.837Z,28.21
2018-08-04T08:19:32.978Z,28.21
2018-08-04T08:20:33.504Z,28.18
2018-08-04T08:21:33.037Z,28.28
2018-08-04T08:22:33.105Z,28.36
2018-08-04T08:23:33.173Z,28.46
2018-08-04T08:24:33.240Z,28.64
2018-08-04T08:25:33.308Z,28.72
2018-08-04T08:26:33.376Z,28.61
2018-08-04T08:27:33.444Z,28.28
2018-08-04T08:28:33.659Z,28.27
2018-08-04T08:29:33.577Z,28.43
2018-08-04T08:30:33.645Z,28.57
2018-08-04T08:31:33.768Z,28.74
2018-08-04T08:32:33.784Z,28.95
2018-08-04T08:33:33.849Z,29.08
2018-08-04T08:34:33.915Z,29.20
2018-08-04T08:35:33.983Z,29.29
2018-08-04T08:36:34.636Z,29.44
2018-08-04T08:37:34.668Z,29.42
2018-08-04T08:38:34.188Z,29.48
2018-08-04T08:39:34.256Z,29.48
2018-08-04T08:40:34.322Z,29.48
2018-08-04T08:41:34.391Z,29.42
2018-08-04T08:42:34.458Z,29.45
2018-08-04T08:43:34.526Z,29.69
2018-08-04T08:44:34.593Z,29.62
2018-08-04T08:45:34.661Z,29.79
2018-08-04T08:46:34.731Z,30.03
2018-08-04T08:47:34.801Z,30.00
2018-08-04T08:48:34.866Z,30.11
2018-08-04T08:49:34.937Z,30.16
2018-08-04T08:50:35.004Z,30.28
2018-08-04T08:51:35.072Z,30.38
2018-08-04T08:52:35.140Z,30.54
2018-08-04T08:53:35.318Z,30.67
2018-08-04T08:54:35.277Z,30.79
2018-08-04T08:55:35.346Z,30.83
2018-08-04T08:56:35.415Z,30.76
2018-08-04T08:57:35.485Z,30.83
2018-08-04T08:58:35.552Z,30.91
2018-08-04T08:59:35.621Z,31.00
2018-08-04T09:00:35.689Z,31.19
2018-08-04T09:01:35.759Z,31.23
2018-08-04T09:02:35.830Z,31.22
2018-08-04T09:03:35.897Z,31.47
2018-08-04T09:04:35.966Z,31.38
2018-08-04T09:05:36.037Z,31.41
2018-08-04T09:06:36.105Z,31.49
2018-08-04T09:07:36.176Z,31.52
2018-08-04T09:08:36.249Z,31.57
2018-08-04T09:09:36.314Z,31.49
2018-08-04T09:10:36.387Z,31.52
2018-08-04T09:11:36.454Z,31.31
2018-08-04T09:12:36.524Z,31.20
2018-08-04T09:13:36.593Z,30.98
2018-08-04T09:14:36.666Z,31.18
2018-08-04T09:15:36.768Z,31.19
2018-08-04T09:16:36.802Z,31.25
2018-08-04T09:17:36.872Z,31.46
2018-08-04T09:18:36.943Z,31.57
2018-08-04T09:19:37.014Z,31.65
2018-08-04T09:20:37.081Z,31.60
2018-08-04T09:21:37.157Z,31.67
2018-08-04T09:22:37.222Z,31.67
2018-08-04T09:23:37.294Z,31.75
2018-08-04T09:24:37.363Z,31.92
2018-08-04T09:25:50.170Z,31.75
2018-08-04T09:26:37.501Z,31.67
2018-08-04T09:27:37.571Z,31.84
2018-08-04T09:28:37.639Z,32.03
2018-08-04T09:29:37.710Z,32.05
2018-08-04T09:30:37.779Z,32.29
2018-08-04T09:31:37.849Z,32.46
2018-08-04T09:32:37.918Z,32.40
2018-08-04T09:33:37.988Z,32.58
2018-08-04T09:34:38.062Z,32.69
2018-08-04T09:35:38.129Z,32.65
2018-08-04T09:36:38.199Z,32.63
2018-08-04T09:37:38.268Z,32.65
2018-08-04T09:38:38.337Z,32.76
2018-08-04T09:39:38.409Z,32.95
2018-08-04T09:40:38.477Z,33.12
2018-08-04T09:41:38.549Z,33.03
2018-08-04T09:42:38.619Z,33.00
2018-08-04T09:43:38.688Z,33.14
2018-08-04T09:44:38.758Z,33.33
2018-08-04T09:45:38.828Z,33.41
2018-08-04T09:46:38.899Z,33.35
2018-08-04T09:47:38.970Z,33.15
2018-08-04T09:48:39.039Z,33.12
2018-08-04T09:49:39.108Z,33.03
2018-08-04T09:50:39.182Z,33.31
2018-08-04T09:51:39.252Z,33.44
2018-08-04T09:52:39.343Z,33.63
2018-08-04T09:53:39.392Z,33.57
2018-08-04T09:54:39.462Z,33.53
2018-08-04T09:55:39.533Z,33.28
2018-08-04T09:56:39.603Z,33.12
2018-08-04T09:57:39.678Z,33.35
2018-08-04T09:58:39.750Z,33.53
2018-08-04T09:59:39.871Z,33.75
2018-08-04T10:00:39.885Z,33.79
2018-08-04T10:01:39.955Z,33.75
2018-08-04T10:02:40.026Z,33.86
2018-08-04T10:03:40.098Z,33.79
2018-08-04T10:04:40.167Z,33.56
2018-08-04T10:05:40.237Z,33.50
2018-08-04T10:06:40.311Z,33.53
2018-08-04T10:07:40.378Z,33.40
2018-08-04T10:08:40.449Z,33.28
2018-08-04T10:09:40.518Z,33.34
2018-08-04T10:10:40.588Z,33.29
2018-08-04T10:11:40.658Z,33.24
2018-08-04T10:12:40.727Z,33.33
2018-08-04T10:13:41.048Z,33.33
2018-08-04T10:14:40.868Z,33.20
2018-08-04T10:15:40.939Z,33.33
2018-08-04T10:16:41.008Z,33.47
2018-08-04T10:17:41.082Z,33.45
2018-08-04T10:18:41.148Z,33.50
2018-08-04T10:19:41.222Z,33.55
2018-08-04T10:20:41.312Z,33.63
2018-08-04T10:21:41.358Z,33.82
2018-08-04T10:22:41.428Z,34.05
2018-08-04T10:23:41.499Z,34.05
2018-08-04T10:24:41.569Z,34.01
2018-08-04T10:25:41.640Z,34.27
2018-08-04T10:26:41.711Z,34.31
2018-08-04T10:27:41.788Z,34.23
2018-08-04T10:28:41.853Z,34.28
2018-08-04T10:29:41.924Z,34.27
2018-08-04T10:30:42.011Z,34.36
2018-08-04T10:31:42.069Z,34.56
2018-08-04T10:32:42.244Z,34.64
2018-08-04T10:33:42.213Z,34.65
2018-08-04T10:34:42.285Z,34.61
2018-08-04T10:35:42.419Z,34.86
2018-08-04T10:36:42.430Z,35.09
2018-08-04T10:37:42.504Z,35.44
2018-08-04T10:38:42.583Z,35.68
2018-08-04T10:39:43.285Z,35.18
2018-08-04T10:40:42.728Z,35.44
2018-08-04T10:41:42.800Z,35.65
2018-08-04T10:42:42.874Z,35.27
2018-08-04T10:43:42.949Z,35.58
2018-08-04T10:44:43.022Z,35.69
2018-08-04T10:45:43.098Z,35.64
2018-08-04T10:46:43.173Z,36.03
2018-08-04T10:47:43.249Z,35.83
2018-08-04T10:48:43.321Z,35.93
2018-08-04T10:49:43.397Z,36.18
2018-08-04T10:50:43.473Z,36.27
2018-08-04T10:51:43.549Z,36.48
2018-08-04T10:52:43.622Z,36.83
2018-08-04T10:53:43.698Z,36.64
2018-08-04T10:54:43.775Z,36.84
2018-08-04T10:55:43.852Z,37.04
2018-08-04T10:56:43.927Z,37.56
2018-08-04T10:57:44.002Z,36.97
2018-08-04T10:58:44.081Z,36.77
2018-08-04T10:59:44.155Z,36.40
2018-08-04T11:00:44.230Z,36.48
2018-08-04T11:01:44.306Z,37.16
2018-08-04T11:02:44.386Z,37.45
2018-08-04T11:03:44.468Z,37.35
2018-08-04T11:04:44.536Z,37.63
2018-08-04T11:05:44.611Z,37.45
2018-08-04T11:06:44.688Z,36.78
2018-08-04T11:07:44.764Z,37.05
2018-08-04T11:08:44.841Z,37.06
2018-08-04T11:09:44.917Z,37.01
2018-08-04T11:10:44.996Z,36.43
2018-08-04T11:11:45.076Z,37.06
2018-08-04T11:12:45.148Z,37.20
2018-08-04T11:13:45.225Z,37.18
2018-08-04T11:14:45.301Z,37.21
2018-08-04T11:15:45.381Z,37.23
2018-08-04T11:16:45.455Z,37.62
2018-08-04T11:17:45.534Z,37.85
2018-08-04T11:18:45.610Z,37.82
2018-08-04T11:19:45.687Z,38.16
2018-08-04T11:20:45.763Z,37.49
2018-08-04T11:21:45.841Z,37.82
2018-08-04T11:22:45.919Z,37.85
2018-08-04T11:23:45.995Z,38.07
2018-08-04T11:24:46.073Z,37.50
2018-08-04T11:25:46.150Z,37.47
2018-08-04T11:26:46.227Z,37.85
2018-08-04T11:27:46.304Z,38.10
2018-08-04T11:28:46.383Z,37.96
2018-08-04T11:29:46.459Z,37.49
2018-08-04T11:30:46.580Z,37.58
2018-08-04T11:31:46.614Z,37.47
2018-08-04T11:32:46.690Z,37.49
2018-08-04T11:33:46.768Z,37.46
2018-08-04T11:34:46.847Z,37.80
2018-08-04T11:35:46.924Z,38.30
2018-08-04T11:36:47.000Z,37.81
2018-08-04T11:37:47.110Z,38.00
2018-08-04T11:38:47.155Z,38.22
2018-08-04T11:39:48.035Z,38.38
2018-08-04T11:40:47.311Z,38.62
2018-08-04T11:41:47.387Z,38.82
2018-08-04T11:42:47.465Z,38.56
2018-08-04T11:43:47.543Z,38.50
2018-08-04T11:44:47.620Z,38.65
2018-08-04T11:45:47.696Z,38.45
2018-08-04T11:46:47.775Z,38.15
2018-08-04T11:47:47.853Z,37.97
2018-08-04T11:48:47.928Z,37.95
2018-08-04T11:49:48.006Z,37.96
2018-08-04T11:50:48.086Z,38.45
2018-08-04T11:51:48.161Z,38.14
2018-08-04T11:52:48.237Z,38.31
2018-08-04T11:53:48.318Z,38.10
2018-08-04T11:54:48.440Z,38.59
2018-08-04T11:55:48.470Z,38.44
2018-08-04T11:56:48.549Z,38.84
2018-08-04T11:57:48.625Z,38.75
2018-08-04T11:58:48.702Z,38.44
2018-08-04T11:59:48.780Z,38.19
2018-08-04T12:00:48.857Z,38.65
2018-08-04T12:01:48.966Z,38.86
2018-08-04T12:02:49.013Z,38.04
2018-08-04T12:03:49.090Z,37.45
2018-08-04T12:04:49.417Z,37.21
2018-08-04T12:05:49.247Z,37.35
2018-08-04T12:06:49.327Z,37.78
2018-08-04T12:07:49.401Z,37.80
2018-08-04T12:08:49.476Z,37.93
2018-08-04T12:09:49.556Z,38.45
2018-08-04T12:10:49.643Z,38.55
2018-08-04T12:11:49.711Z,38.93
2018-08-04T12:12:49.787Z,39.17
2018-08-04T12:13:49.864Z,39.29
2018-08-04T12:14:49.944Z,39.62
2018-08-04T12:15:50.021Z,39.81
2018-08-04T12:16:50.096Z,38.60
2018-08-04T12:17:50.175Z,38.04
2018-08-04T12:18:50.252Z,38.53
2018-08-04T12:19:50.337Z,38.53
2018-08-04T12:20:50.408Z,38.65
2018-08-04T12:21:50.485Z,38.71
2018-08-04T12:22:50.563Z,39.48
2018-08-04T12:23:50.642Z,39.72
2018-08-04T12:24:50.719Z,39.20
2018-08-04T12:25:50.797Z,39.24
2018-08-04T12:26:50.875Z,39.31
2018-08-04T12:27:50.954Z,38.82
2018-08-04T12:28:51.032Z,39.48
2018-08-04T12:29:51.108Z,39.57
2018-08-04T12:30:51.188Z,40.04
2018-08-04T12:31:51.267Z,39.81
2018-08-04T12:32:51.343Z,39.36
2018-08-04T12:33:51.423Z,38.26
2018-08-04T12:34:51.500Z,38.74
2018-08-04T12:35:51.578Z,38.75
2018-08-04T12:36:51.656Z,39.50
2018-08-04T12:37:51.736Z,39.99
2018-08-04T12:38:52.122Z,39.85
2018-08-04T12:39:51.890Z,40.04
2018-08-04T12:40:51.969Z,40.39
2018-08-04T12:41:52.049Z,40.61
2018-08-04T12:42:52.127Z,40.33
2018-08-04T12:43:52.204Z,40.45
2018-08-04T12:44:52.282Z,40.04
2018-08-04T12:45:52.361Z,39.17
2018-08-04T12:46:52.439Z,38.43
2018-08-04T12:47:52.517Z,38.25
2018-08-04T12:48:52.598Z,37.78
2018-08-04T12:49:52.822Z,37.97
2018-08-04T12:50:52.750Z,37.42
2018-08-04T12:51:52.843Z,37.42
2018-08-04T12:52:52.904Z,36.93
2018-08-04T12:53:52.980Z,36.67